Time;durP1;ratioP1;P1;durP2;ratioP2;P2;SDS_P1;SDS_P2;PMS_P1;PMS_P2;Temp;Humidity;BMP_temperature;BMP_pressure;BME280_temperature;BME280_humidity;BME280_pressure;Samples;Min_cycle;Max_cycle;Signal;HPM_P1;HPM_P2
2021/06/25 00:00:53;;;;;;;24.30;20.73;;;;;;;;;;10328404;28;20168;-82
2021/06/25 00:05:55;;;;;;;29.58;21.90;;;;;;;;;;10329225;28;20130;-82
2021/06/25 00:10:57;;;;;;;31.50;24.65;;;;;;;;;;10329333;28;20464;-83
2021/06/25 00:15:58;;;;;;;33.50;27.20;;;;;;;;;;10328632;28;20081;-83
2021/06/25 00:21:00;;;;;;;41.88;30.98;;;;;;;;;;10328687;28;20142;-83
2021/06/25 00:26:02;;;;;;;36.03;28.02;;;;;;;;;;10326742;28;20097;-82
2021/06/25 00:31:03;;;;;;;43.20;32.85;;;;;;;;;;10327379;28;20078;-82
2021/06/25 00:36:05;;;;;;;46.70;35.10;;;;;;;;;;10328551;28;20058;-84
2021/06/25 00:41:07;;;;;;;44.78;35.92;;;;;;;;;;10327219;28;20054;-82
2021/06/25 00:46:08;;;;;;;48.63;36.08;;;;;;;;;;10326083;28;20074;-82
2021/06/25 00:51:10;;;;;;;44.92;34.97;;;;;;;;;;10326638;28;20105;-82
2021/06/25 00:56:12;;;;;;;45.85;34.00;;;;;;;;;;10326035;28;20058;-82
2021/06/25 01:01:14;;;;;;;45.38;35.95;;;;;;;;;;10326885;28;20086;-82
2021/06/25 01:06:16;;;;;;;45.28;35.15;;;;;;;;;;10325669;28;20050;-82
2021/06/25 01:11:18;;;;;;;47.35;35.97;;;;;;;;;;10326367;28;20062;-82
2021/06/25 01:16:19;;;;;;;54.85;36.67;;;;;;;;;;10326428;28;20057;-84
2021/06/25 01:21:21;;;;;;;45.58;36.15;;;;;;;;;;10327175;28;20062;-82
2021/06/25 01:26:22;;;;;;;47.35;37.53;;;;;;;;;;10324408;28;20476;-82
2021/06/25 01:31:24;;;;;;;48.22;39.22;;;;;;;;;;10326065;28;20130;-83
2021/06/25 01:36:26;;;;;;;56.35;41.78;;;;;;;;;;10325589;28;20104;-82
2021/06/25 01:41:28;;;;;;;54.28;40.65;;;;;;;;;;10325872;28;20480;-83
2021/06/25 01:46:31;;;;;;;48.80;38.00;;;;;;;;;;10326155;28;20150;-83
2021/06/25 01:51:33;;;;;;;53.35;39.20;;;;;;;;;;10325419;28;20105;-83
2021/06/25 01:56:34;;;;;;;47.38;39.13;;;;;;;;;;10324197;28;20484;-82
2021/06/25 02:01:36;;;;;;;75.38;47.00;;;;;;;;;;10326520;28;20093;-82
2021/06/25 02:06:37;;;;;;;72.30;47.10;;;;;;;;;;10330833;28;20058;-83
2021/06/25 02:11:39;;;;;;;70.68;47.55;;;;;;;;;;10331459;28;20096;-82
2021/06/25 02:16:41;;;;;;;82.80;49.33;;;;;;;;;;10331527;28;20546;-82
2021/06/25 02:21:42;;;;;;;82.50;51.15;;;;;;;;;;10331187;28;20133;-82
2021/06/25 02:26:44;;;;;;;73.15;49.20;;;;;;;;;;10290897;28;20046;-82
2021/06/25 02:31:45;;;;;;;80.78;52.67;;;;;;;;;;10291155;28;20097;-83
2021/06/25 02:36:47;;;;;;;86.05;54.88;;;;;;;;;;10291101;28;20113;-83
2021/06/25 02:41:49;;;;;;;75.55;52.25;;;;;;;;;;10291060;28;20105;-81
2021/06/25 02:46:50;;;;;;;60.10;47.38;;;;;;;;;;10295140;28;20082;-83
2021/06/25 02:51:52;;;;;;;60.83;46.78;;;;;;;;;;10298205;28;20062;-83
2021/06/25 02:56:54;;;;;;;63.17;47.13;;;;;;;;;;10337000;28;20105;-83
2021/06/25 03:01:55;;;;;;;67.55;48.50;;;;;;;;;;10337273;28;20046;-82
2021/06/25 03:06:57;;;;;;;78.22;52.10;;;;;;;;;;10331560;28;20057;-82
2021/06/25 03:11:59;;;;;;;73.20;52.10;;;;;;;;;;10331445;28;20097;-82
2021/06/25 03:17:00;;;;;;;71.60;48.13;;;;;;;;;;10330571;28;20051;-83
2021/06/25 03:22:02;;;;;;;106.05;58.85;;;;;;;;;;10329523;28;20133;-83
2021/06/25 03:27:04;;;;;;;82.47;53.20;;;;;;;;;;10330615;28;20128;-82
2021/06/25 03:32:07;;;;;;;71.07;50.03;;;;;;;;;;10331080;28;20081;-83
2021/06/25 03:37:09;;;;;;;86.65;54.10;;;;;;;;;;10331029;28;20064;-83
2021/06/25 03:42:11;;;;;;;91.15;56.28;;;;;;;;;;10330779;28;20057;-83
2021/06/25 03:47:12;;;;;;;95.13;56.28;;;;;;;;;;10330501;28;20085;-82
2021/06/25 03:52:14;;;;;;;70.32;48.20;;;;;;;;;;10329536;28;20080;-82
2021/06/25 03:57:16;;;;;;;70.63;47.20;;;;;;;;;;10329324;28;20050;-82
2021/06/25 04:02:17;;;;;;;70.38;49.03;;;;;;;;;;10330735;28;20058;-82
2021/06/25 04:07:19;;;;;;;74.32;51.30;;;;;;;;;;10330728;28;20472;-83
2021/06/25 04:12:20;;;;;;;71.40;49.67;;;;;;;;;;10329941;28;20492;-83
2021/06/25 04:17:22;;;;;;;71.93;51.85;;;;;;;;;;10330095;28;20058;-83
2021/06/25 04:22:24;;;;;;;73.70;52.25;;;;;;;;;;10329501;28;20549;-83
2021/06/25 04:27:26;;;;;;;63.95;46.40;;;;;;;;;;10327645;28;20082;-83
2021/06/25 04:32:28;;;;;;;71.85;50.03;;;;;;;;;;10329254;28;20058;-83
2021/06/25 04:37:30;;;;;;;71.10;48.50;;;;;;;;;;10329024;28;20088;-83
2021/06/25 04:42:31;;;;;;;61.17;45.63;;;;;;;;;;10329141;28;20094;-83
2021/06/25 04:47:33;;;;;;;61.60;44.72;;;;;;;;;;10328393;28;20085;-83
2021/06/25 04:52:35;;;;;;;58.40;43.33;;;;;;;;;;10327665;28;20050;-83
2021/06/25 04:57:37;;;;;;;62.67;44.72;;;;;;;;;;10327600;28;20050;-82
2021/06/25 05:02:39;;;;;;;61.42;43.33;;;;;;;;;;10327647;28;20109;-82
2021/06/25 05:07:41;;;;;;;51.92;40.88;;;;;;;;;;10326678;28;20046;-83
2021/06/25 05:12:43;;;;;;;53.35;40.85;;;;;;;;;;10325442;28;20439;-83
2021/06/25 05:17:44;;;;;;;50.47;38.38;;;;;;;;;;10326810;28;20526;-83
2021/06/25 05:23:06;;;;;;;48.22;37.83;;;;;;;;;;10326192;28;20084;-83
2021/06/25 05:28:08;;;;;;;50.45;36.35;;;;;;;;;;10325324;28;20547;-83
2021/06/25 05:33:10;;;;;;;51.08;38.83;;;;;;;;;;10326949;28;20046;-83
2021/06/25 05:38:14;;;;;;;51.15;36.88;;;;;;;;;;10325739;28;20050;-83
2021/06/25 05:43:15;;;;;;;50.08;36.40;;;;;;;;;;10326991;28;20467;-83
2021/06/25 05:48:17;;;;;;;45.28;35.28;;;;;;;;;;10327194;28;20054;-83
2021/06/25 05:53:21;;;;;;;45.60;35.45;;;;;;;;;;10318528;28;20050;-85
2021/06/25 05:58:28;;;;;;;42.95;33.70;;;;;;;;;;10316857;28;20054;-87
2021/06/25 06:03:31;;;;;;;43.88;35.28;;;;;;;;;;10318859;28;20442;-85
2021/06/25 06:08:36;;;;;;;44.15;38.00;;;;;;;;;;10291898;28;20496;-85
2021/06/25 06:13:40;;;;;;;43.72;37.17;;;;;;;;;;10323764;28;20058;-85
2021/06/25 06:18:49;;;;;;;45.70;38.40;;;;;;;;;;10325411;28;20086;-85
2021/06/25 06:34:36;;;;;;;42.20;35.40;;;;;;;;;;10333606;28;19922;-86
2021/06/25 06:39:42;;;;;;;41.03;35.03;;;;;;;;;;10332559;28;20054;-85
2021/06/25 06:44:52;;;;;;;41.15;34.80;;;;;;;;;;10332054;28;20054;-85
2021/06/25 06:49:53;;;;;;;44.60;33.60;;;;;;;;;;10330794;28;20116;-86
2021/06/25 06:54:56;;;;;;;46.85;36.63;;;;;;;;;;10315292;28;20117;-85
2021/06/25 06:59:58;;;;;;;42.42;35.55;;;;;;;;;;10321869;28;20054;-85
2021/06/25 07:05:00;;;;;;;43.75;36.17;;;;;;;;;;10324094;28;20456;-84
2021/06/25 07:10:03;;;;;;;44.22;35.92;;;;;;;;;;10329766;28;20046;-85
2021/06/25 07:15:07;;;;;;;45.33;36.85;;;;;;;;;;10328458;28;20077;-85
2021/06/25 07:20:09;;;;;;;41.90;36.40;;;;;;;;;;10330874;28;20100;-85
2021/06/25 07:25:12;;;;;;;42.08;36.78;;;;;;;;;;10310510;28;20062;-85
2021/06/25 07:30:14;;;;;;;43.75;38.38;;;;;;;;;;10306417;28;20059;-84
2021/06/25 07:35:15;;;;;;;42.90;36.75;;;;;;;;;;10289250;28;20078;-85
2021/06/25 07:40:17;;;;;;;42.42;37.50;;;;;;;;;;10314747;28;20141;-85
2021/06/25 07:45:21;;;;;;;42.90;36.38;;;;;;;;;;10327726;28;20078;-85
2021/06/25 07:50:25;;;;;;;41.00;35.83;;;;;;;;;;10328547;28;20100;-84
2021/06/25 07:55:42;;;;;;;44.20;35.08;;;;;;;;;;10327586;28;20054;-86
2021/06/25 08:00:45;;;;;;;37.03;32.97;;;;;;;;;;10328696;28;20050;-85
2021/06/25 08:05:48;;;;;;;37.67;33.83;;;;;;;;;;10328668;28;20538;-86
2021/06/25 08:10:52;;;;;;;36.97;31.80;;;;;;;;;;10329098;28;20108;-86
2021/06/25 08:16:00;;;;;;;42.45;32.92;;;;;;;;;;10327481;28;20138;-85
2021/06/25 08:21:01;;;;;;;43.00;36.03;;;;;;;;;;10329061;28;20460;-85
2021/06/25 08:26:07;;;;;;;42.35;37.75;;;;;;;;;;10316457;28;20054;-85
2021/06/25 08:31:09;;;;;;;43.50;34.33;;;;;;;;;;10331533;28;20455;-85
2021/06/25 08:36:11;;;;;;;42.42;36.40;;;;;;;;;;10326517;28;20161;-85
2021/06/25 08:41:13;;;;;;;39.33;34.70;;;;;;;;;;10326401;28;20066;-86
2021/06/25 08:46:16;;;;;;;38.22;33.22;;;;;;;;;;10324437;28;20078;-86
2021/06/25 08:51:19;;;;;;;36.67;32.65;;;;;;;;;;10308488;28;20150;-85
2021/06/25 08:56:20;;;;;;;37.50;31.60;;;;;;;;;;10322752;28;20046;-86
2021/06/25 09:01:22;;;;;;;38.50;32.65;;;;;;;;;;10325478;28;20058;-85
2021/06/25 09:06:25;;;;;;;38.67;33.35;;;;;;;;;;10322465;28;20042;-86
2021/06/25 09:11:32;;;;;;;38.38;33.15;;;;;;;;;;10325046;28;20046;-86
2021/06/25 09:16:36;;;;;;;39.65;33.58;;;;;;;;;;10322304;28;20054;-86
2021/06/25 09:21:39;;;;;;;37.92;32.65;;;;;;;;;;10325421;28;20050;-85
2021/06/25 09:26:41;;;;;;;39.70;32.83;;;;;;;;;;10324389;28;20074;-86
2021/06/25 09:31:43;;;;;;;35.92;32.03;;;;;;;;;;10324672;28;20066;-86
2021/06/25 09:36:45;;;;;;;37.03;30.55;;;;;;;;;;10325816;28;20547;-83
2021/06/25 09:41:46;;;;;;;34.97;29.30;;;;;;;;;;10325774;28;20138;-82
2021/06/25 09:46:49;;;;;;;33.40;28.75;;;;;;;;;;10308604;28;20096;-82
2021/06/25 09:51:58;;;;;;;30.90;27.48;;;;;;;;;;10311210;28;20522;-83
2021/06/25 09:57:13;;;;;;;34.97;28.73;;;;;;;;;;10321454;28;20134;-82
2021/06/25 10:02:17;;;;;;;32.35;28.85;;;;;;;;;;10326120;28;20105;-82
2021/06/25 10:07:20;;;;;;;32.03;26.75;;;;;;;;;;10330730;28;20061;-81
2021/06/25 10:12:22;;;;;;;29.58;26.38;;;;;;;;;;10329763;28;20515;-81
2021/06/25 10:17:25;;;;;;;28.75;25.23;;;;;;;;;;10322114;28;20065;-82
2021/06/25 10:22:28;;;;;;;28.05;24.17;;;;;;;;;;10327973;28;20137;-81
2021/06/25 10:27:30;;;;;;;27.42;23.95;;;;;;;;;;10328719;28;20480;-80
2021/06/25 10:32:32;;;;;;;30.25;25.48;;;;;;;;;;10330047;28;20073;-80
2021/06/25 10:37:33;;;;;;;24.95;22.08;;;;;;;;;;10328195;28;20078;-81
2021/06/25 10:42:40;;;;;;;28.88;23.70;;;;;;;;;;10328868;28;20295;-81
2021/06/25 10:47:55;;;;;;;29.55;24.15;;;;;;;;;;10319512;28;20131;-81
2021/06/25 10:53:11;;;;;;;21.63;18.63;;;;;;;;;;10330158;28;20534;-81
2021/06/25 10:58:22;;;;;;;21.00;18.80;;;;;;;;;;10323951;28;20519;-80
2021/06/25 11:03:38;;;;;;;21.83;19.30;;;;;;;;;;10329249;28;20117;-80
2021/06/25 11:08:58;;;;;;;22.90;17.10;;;;;;;;;;10327925;28;20125;-79
2021/06/25 11:14:01;;;;;;;21.27;17.52;;;;;;;;;;10322409;28;20077;-80
2021/06/25 11:19:03;;;;;;;22.75;18.58;;;;;;;;;;10313480;28;20448;-80
2021/06/25 11:24:05;;;;;;;19.75;16.65;;;;;;;;;;10321279;28;20077;-80
2021/06/25 11:29:09;;;;;;;19.70;16.60;;;;;;;;;;10294414;28;20051;-79
2021/06/25 11:34:11;;;;;;;21.13;16.55;;;;;;;;;;10320236;28;20125;-79
2021/06/25 11:39:14;;;;;;;18.40;16.25;;;;;;;;;;10325150;28;20089;-79
2021/06/25 11:44:17;;;;;;;20.00;15.50;;;;;;;;;;10326532;28;20555;-79
2021/06/25 11:49:19;;;;;;;19.52;14.05;;;;;;;;;;10318002;28;20451;-80
2021/06/25 11:54:22;;;;;;;16.92;14.93;;;;;;;;;;10325708;28;20057;-79
2021/06/25 11:59:24;;;;;;;21.95;16.38;;;;;;;;;;10325023;28;20128;-79
2021/06/25 12:04:32;;;;;;;17.25;14.80;;;;;;;;;;10326903;28;20128;-79
2021/06/25 12:09:39;;;;;;;18.35;14.98;;;;;;;;;;10320328;28;20137;-80
2021/06/25 12:14:45;;;;;;;20.60;15.43;;;;;;;;;;10314501;28;20568;-81
2021/06/25 12:19:57;;;;;;;18.40;13.80;;;;;;;;;;10325633;28;20077;-81
2021/06/25 12:25:11;;;;;;;18.35;13.98;;;;;;;;;;10315147;28;20137;-80
2021/06/25 12:30:16;;;;;;;14.45;11.02;;;;;;;;;;10323864;28;20050;-81
2021/06/25 12:35:27;;;;;;;15.00;11.75;;;;;;;;;;10325263;28;20140;-83
2021/06/25 12:40:44;;;;;;;16.27;11.57;;;;;;;;;;10293265;28;20140;-82
2021/06/25 12:45:47;;;;;;;18.83;12.48;;;;;;;;;;10305445;28;20156;-82
2021/06/25 12:50:53;;;;;;;12.27;11.02;;;;;;;;;;10326009;28;20049;-80
2021/06/25 12:55:56;;;;;;;13.07;11.70;;;;;;;;;;10305974;28;20070;-80
2021/06/25 13:01:00;;;;;;;14.20;12.13;;;;;;;;;;10290585;28;20410;-80
2021/06/25 13:06:22;;;;;;;11.32;8.50;;;;;;;;;;10321696;28;20050;-80
2021/06/25 13:11:27;;;;;;;9.25;7.55;;;;;;;;;;10311616;28;20079;-80
2021/06/25 13:16:29;;;;;;;11.82;6.60;;;;;;;;;;10316593;28;20065;-81
2021/06/25 13:21:39;;;;;;;9.52;6.78;;;;;;;;;;10323171;28;20484;-81
2021/06/25 13:26:48;;;;;;;11.00;7.22;;;;;;;;;;10324573;28;20093;-81
2021/06/25 13:31:50;;;;;;;;;;;;;;;;;;10324717;28;20081;-81
2021/06/25 13:36:53;;;;;;;7.95;5.88;;;;;;;;;;10311028;28;19925;-81
2021/06/25 13:41:56;;;;;;;7.63;5.45;;;;;;;;;;10316823;28;20085;-81
2021/06/25 13:47:04;;;;;;;7.82;5.10;;;;;;;;;;10324195;28;20140;-81
2021/06/25 13:52:25;;;;;;;9.05;5.95;;;;;;;;;;10323733;28;20073;-81
2021/06/25 13:57:26;;;;;;;8.35;5.40;;;;;;;;;;10318210;28;20077;-82
2021/06/25 14:02:33;;;;;;;5.68;4.50;;;;;;;;;;10307048;28;20515;-81
2021/06/25 14:07:35;;;;;;;6.97;5.13;;;;;;;;;;10324724;28;20050;-81
2021/06/25 14:12:41;;;;;;;6.70;4.57;;;;;;;;;;10324161;28;20069;-81
2021/06/25 14:17:46;;;;;;;7.47;4.82;;;;;;;;;;10322367;28;20121;-81
2021/06/25 14:22:47;;;;;;;6.07;4.10;;;;;;;;;;10322738;28;20058;-81
2021/06/25 14:27:49;;;;;;;7.32;4.78;;;;;;;;;;10322747;28;20082;-81
2021/06/25 14:32:54;;;;;;;5.45;4.15;;;;;;;;;;10318078;28;20067;-81
2021/06/25 14:37:56;;;;;;;5.95;4.15;;;;;;;;;;10312178;28;20086;-81
2021/06/25 14:42:58;;;;;;;7.88;4.70;;;;;;;;;;10290645;28;20283;-81
2021/06/25 14:48:00;;;;;;;5.72;3.88;;;;;;;;;;10321735;28;20464;-81
2021/06/25 14:53:02;;;;;;;6.88;4.13;;;;;;;;;;10329197;28;20050;-81
2021/06/25 14:58:06;;;;;;;6.85;3.95;;;;;;;;;;10330928;28;20086;-81
2021/06/25 15:03:12;;;;;;;5.03;3.83;;;;;;;;;;10325746;28;20943;-78
2021/06/25 15:08:18;;;;;;;6.65;4.10;;;;;;;;;;10327114;28;20093;-78
2021/06/25 15:13:20;;;;;;;5.82;4.03;;;;;;;;;;10328334;28;20054;-80
2021/06/25 15:18:22;;;;;;;6.22;4.07;;;;;;;;;;10287744;28;20062;-79
2021/06/25 15:23:23;;;;;;;8.98;4.00;;;;;;;;;;10294780;28;20059;-78
2021/06/25 15:28:25;;;;;;;4.55;3.00;;;;;;;;;;10317748;28;20520;-79
2021/06/25 15:33:27;;;;;;;5.35;2.70;;;;;;;;;;10309591;28;20105;-78
2021/06/25 15:38:29;;;;;;;6.30;3.40;;;;;;;;;;10304014;28;20534;-79
2021/06/25 15:43:31;;;;;;;5.10;2.90;;;;;;;;;;10313851;28;20133;-79
2021/06/25 15:48:34;;;;;;;7.57;3.25;;;;;;;;;;10323440;28;20053;-79
2021/06/25 15:53:47;;;;;;;5.55;3.00;;;;;;;;;;10315046;28;20068;-79
2021/06/25 15:58:49;;;;;;;7.90;3.17;;;;;;;;;;10321885;28;20081;-78
2021/06/25 16:03:51;;;;;;;5.25;3.20;;;;;;;;;;10314641;28;20046;-79
2021/06/25 16:09:01;;;;;;;6.50;3.33;;;;;;;;;;10323288;28;20049;-81
2021/06/25 16:14:02;;;;;;;4.80;3.50;;;;;;;;;;10302964;28;20047;-80
2021/06/25 16:19:05;;;;;;;4.07;3.00;;;;;;;;;;10317005;28;20082;-78
2021/06/25 16:24:13;;;;;;;4.55;2.72;;;;;;;;;;10324004;28;20081;-81
2021/06/25 16:29:15;;;;;;;5.20;2.70;;;;;;;;;;10324245;28;20577;-80
2021/06/25 16:34:17;;;;;;;4.32;2.88;;;;;;;;;;10314428;28;20082;-81
2021/06/25 16:39:18;;;;;;;4.43;3.10;;;;;;;;;;10314288;28;20089;-80
2021/06/25 16:44:21;;;;;;;6.20;2.80;;;;;;;;;;10323888;28;20081;-80
2021/06/25 16:49:24;;;;;;;8.48;2.80;;;;;;;;;;10314816;28;20086;-79
2021/06/25 16:54:25;;;;;;;5.43;2.97;;;;;;;;;;10324245;28;20077;-80
2021/06/25 16:59:27;;;;;;;6.82;3.20;;;;;;;;;;10323644;28;20078;-81
2021/06/25 17:04:29;;;;;;;8.18;2.90;;;;;;;;;;10322413;28;20089;-81
2021/06/25 17:09:30;;;;;;;5.40;3.10;;;;;;;;;;10324028;28;20074;-82
2021/06/25 17:14:32;;;;;;;3.97;2.72;;;;;;;;;;10324339;28;20085;-82
2021/06/25 17:19:34;;;;;;;5.20;2.80;;;;;;;;;;10324639;28;20054;-81
2021/06/25 17:24:35;;;;;;;4.13;2.78;;;;;;;;;;10313873;28;20089;-81
2021/06/25 17:29:37;;;;;;;6.25;2.95;;;;;;;;;;10321211;28;20077;-81
2021/06/25 17:34:38;;;;;;;4.55;3.00;;;;;;;;;;10314918;28;20137;-82
2021/06/25 17:39:40;;;;;;;6.13;3.22;;;;;;;;;;10323294;28;20113;-82
2021/06/25 17:44:42;;;;;;;4.78;3.30;;;;;;;;;;10322367;28;20070;-82
2021/06/25 17:49:43;;;;;;;5.25;3.17;;;;;;;;;;10321821;28;20077;-82
2021/06/25 17:54:45;;;;;;;5.68;3.47;;;;;;;;;;10321873;28;20086;-82
2021/06/25 17:59:47;;;;;;;4.05;2.92;;;;;;;;;;10321214;28;20086;-81
2021/06/25 18:04:49;;;;;;;6.78;3.38;;;;;;;;;;10314977;28;20054;-80
2021/06/25 18:09:51;;;;;;;5.00;3.40;;;;;;;;;;10308777;28;20146;-82
2021/06/25 18:14:53;;;;;;;6.55;3.50;;;;;;;;;;10317815;28;20086;-79
2021/06/25 18:19:55;;;;;;;4.75;3.38;;;;;;;;;;10317336;28;20079;-80
2021/06/25 18:24:57;;;;;;;4.30;3.25;;;;;;;;;;10290621;28;20139;-79
2021/06/25 18:29:58;;;;;;;4.70;3.20;;;;;;;;;;10322526;28;20083;-80
2021/06/25 18:35:00;;;;;;;4.50;3.60;;;;;;;;;;10319916;28;20050;-80
2021/06/25 18:40:03;;;;;;;5.03;3.30;;;;;;;;;;10310642;28;20085;-80
2021/06/25 18:45:05;;;;;;;7.10;3.75;;;;;;;;;;10328974;28;20137;-80
2021/06/25 18:50:08;;;;;;;8.95;4.30;;;;;;;;;;10301931;28;20070;-80
2021/06/25 18:55:11;;;;;;;5.15;4.30;;;;;;;;;;10313872;28;20761;-81
2021/06/25 19:00:13;;;;;;;6.38;4.10;;;;;;;;;;10321742;28;20445;-81
2021/06/25 19:05:17;;;;;;;5.65;3.90;;;;;;;;;;10323158;28;20046;-81
2021/06/25 19:10:20;;;;;;;7.65;4.25;;;;;;;;;;10328322;28;20121;-81
2021/06/25 19:15:21;;;;;;;8.52;4.15;;;;;;;;;;10326757;28;20077;-81
2021/06/25 19:20:23;;;;;;;8.75;4.78;;;;;;;;;;10322539;28;20142;-81
2021/06/25 19:25:25;;;;;;;6.70;4.60;;;;;;;;;;10293262;28;20081;-81
2021/06/25 19:30:26;;;;;;;9.10;4.60;;;;;;;;;;10326265;28;20480;-81
2021/06/25 19:35:29;;;;;;;9.13;5.00;;;;;;;;;;10307160;28;20416;-80
2021/06/25 19:40:31;;;;;;;9.45;5.05;;;;;;;;;;10314532;28;20129;-81
2021/06/25 19:45:34;;;;;;;9.13;5.18;;;;;;;;;;10326471;28;20050;-80
2021/06/25 19:50:35;;;;;;;8.75;4.88;;;;;;;;;;10325166;28;20415;-80
2021/06/25 19:55:37;;;;;;;8.02;4.95;;;;;;;;;;10324271;28;20488;-80
2021/06/25 20:00:38;;;;;;;9.75;5.43;;;;;;;;;;10320061;28;20088;-80
2021/06/25 20:05:41;;;;;;;6.55;5.10;;;;;;;;;;10317577;28;20050;-80
2021/06/25 20:10:42;;;;;;;11.27;5.90;;;;;;;;;;10324536;28;20089;-81
2021/06/25 20:15:44;;;;;;;12.82;5.85;;;;;;;;;;10324267;28;20097;-80
2021/06/25 20:20:48;;;;;;;10.40;5.95;;;;;;;;;;10325791;28;20089;-85
2021/06/25 20:25:49;;;;;;;10.45;5.88;;;;;;;;;;10319368;28;20058;-83
2021/06/25 20:30:51;;;;;;;12.13;5.78;;;;;;;;;;10307104;28;20157;-83
2021/06/25 20:35:53;;;;;;;11.13;6.32;;;;;;;;;;10322053;28;20129;-84
2021/06/25 20:40:59;;;;;;;8.23;6.13;;;;;;;;;;10296386;28;20134;-86
2021/06/25 20:46:03;;;;;;;9.25;6.68;;;;;;;;;;10323533;28;20085;-84
2021/06/25 20:51:04;;;;;;;10.00;6.10;;;;;;;;;;10325650;28;20078;-84
2021/06/25 20:56:06;;;;;;;8.60;6.45;;;;;;;;;;10317138;28;20465;-84
2021/06/25 21:01:08;;;;;;;10.82;6.65;;;;;;;;;;10295937;28;20416;-83
2021/06/25 21:06:10;;;;;;;9.82;6.50;;;;;;;;;;10322462;28;20059;-83
2021/06/25 21:11:11;;;;;;;8.77;6.38;;;;;;;;;;10304605;28;20093;-83
2021/06/25 21:16:13;;;;;;;11.68;6.80;;;;;;;;;;10322057;28;20047;-83
2021/06/25 21:21:15;;;;;;;10.13;6.80;;;;;;;;;;10323214;28;20050;-84
2021/06/25 21:26:17;;;;;;;9.13;6.70;;;;;;;;;;10313472;28;20137;-84
2021/06/25 21:31:20;;;;;;;14.40;7.10;;;;;;;;;;10309134;28;20058;-83
2021/06/25 21:36:22;;;;;;;9.35;7.22;;;;;;;;;;10326017;28;20094;-83
2021/06/25 21:41:24;;;;;;;11.40;7.03;;;;;;;;;;10285498;28;20055;-84
2021/06/25 21:46:25;;;;;;;9.23;7.45;;;;;;;;;;10296986;28;20137;-84
2021/06/25 21:51:27;;;;;;;16.92;9.80;;;;;;;;;;10323730;28;20460;-84
2021/06/25 21:56:29;;;;;;;11.20;7.45;;;;;;;;;;10326296;28;20109;-84
2021/06/25 22:01:30;;;;;;;9.18;8.07;;;;;;;;;;10325951;28;20121;-84
2021/06/25 22:06:32;;;;;;;10.55;8.43;;;;;;;;;;10324485;28;20053;-84
2021/06/25 22:11:36;;;;;;;10.43;7.50;;;;;;;;;;10325174;28;20141;-83
2021/06/25 22:16:38;;;;;;;12.35;7.72;;;;;;;;;;10324149;28;20089;-83
2021/06/25 22:21:40;;;;;;;12.52;9.10;;;;;;;;;;10325369;28;20473;-83
2021/06/25 22:26:41;;;;;;;13.18;8.38;;;;;;;;;;10326208;28;20133;-83
2021/06/25 22:31:43;;;;;;;10.15;8.23;;;;;;;;;;10324928;28;20074;-83
2021/06/25 22:36:45;;;;;;;10.27;8.10;;;;;;;;;;10325192;28;20078;-83
2021/06/25 22:41:46;;;;;;;13.70;8.77;;;;;;;;;;10324283;28;20523;-83
2021/06/25 22:46:48;;;;;;;14.30;8.48;;;;;;;;;;10325104;28;20477;-83
2021/06/25 22:51:49;;;;;;;12.15;8.43;;;;;;;;;;10325341;28;20117;-83
2021/06/25 22:56:51;;;;;;;9.73;8.07;;;;;;;;;;10324732;28;20081;-83
2021/06/25 23:01:53;;;;;;;10.15;8.13;;;;;;;;;;10325772;28;20058;-83
2021/06/25 23:06:56;;;;;;;11.13;8.07;;;;;;;;;;10331524;28;20133;-83
2021/06/25 23:11:58;;;;;;;11.10;8.45;;;;;;;;;;10332279;28;20555;-83
2021/06/25 23:16:59;;;;;;;11.13;9.20;;;;;;;;;;10332096;28;20112;-83
2021/06/25 23:22:01;;;;;;;11.70;9.18;;;;;;;;;;10332271;28;20671;-83
2021/06/25 23:27:03;;;;;;;10.85;8.38;;;;;;;;;;10331762;28;20113;-84
2021/06/25 23:32:05;;;;;;;9.68;8.60;;;;;;;;;;10330013;28;20456;-84
2021/06/25 23:37:06;;;;;;;10.02;7.95;;;;;;;;;;10330262;28;20484;-84
2021/06/25 23:42:08;;;;;;;12.27;7.95;;;;;;;;;;10330371;28;20081;-84
2021/06/25 23:47:10;;;;;;;14.38;8.95;;;;;;;;;;10330283;28;20085;-84
2021/06/25 23:52:12;;;;;;;12.43;7.90;;;;;;;;;;10331761;28;20054;-84
2021/06/25 23:57:13;;;;;;;11.00;8.10;;;;;;;;;;10330928;28;20511;-84
